Time;durP1;ratioP1;P1;durP2;ratioP2;P2;SDS_P1;SDS_P2;PMS_P1;PMS_P2;Temp;Humidity;BMP_temperature;BMP_pressure;BME280_temperature;BME280_humidity;BME280_pressure;Samples;Min_cycle;Max_cycle;Signal;HPM_P1;HPM_P2
2022/09/22 00:01:01;;;;;;;1.50;0.32;;;24.40;36.90;;;;;;4820629;29;20042;-49
2022/09/22 00:03:31;;;;;;;1.35;0.20;;;24.40;36.90;;;;;;4820164;29;20050;-51
2022/09/22 00:06:03;;;;;;;1.40;0.25;;;24.40;36.90;;;;;;4814625;29;20084;-51
2022/09/22 00:08:32;;;;;;;2.05;0.52;;;24.40;37.00;;;;;;4814950;29;20039;-48
2022/09/22 00:11:04;;;;;;;2.15;0.63;;;24.40;37.10;;;;;;4820766;29;20070;-51
2022/09/22 00:13:32;;;;;;;0.43;0.15;;;24.40;37.10;;;;;;4820694;29;20058;-47
2022/09/22 00:16:00;;;;;;;0.50;0.25;;;24.30;37.10;;;;;;4820720;29;20046;-50
2022/09/22 00:18:27;;;;;;;0.88;0.20;;;24.30;37.10;;;;;;4819977;29;20070;-53
2022/09/22 00:20:56;;;;;;;0.30;0.30;;;24.30;37.10;;;;;;4820568;29;20046;-48
2022/09/22 00:23:25;;;;;;;0.40;0.10;;;24.30;37.10;;;;;;4820593;29;20069;-51
2022/09/22 00:25:53;;;;;;;0.77;0.25;;;24.30;37.10;;;;;;4820381;29;20093;-50
2022/09/22 00:28:20;;;;;;;0.43;0.25;;;24.30;37.20;;;;;;4820441;29;20061;-51
2022/09/22 00:30:47;;;;;;;0.68;0.30;;;24.30;37.20;;;;;;4820471;29;20046;-49
2022/09/22 00:33:14;;;;;;;0.40;0.30;;;24.20;37.20;;;;;;4819455;29;20069;-49
2022/09/22 00:35:41;;;;;;;0.40;0.40;;;24.20;37.20;;;;;;4824446;29;20057;-51
2022/09/22 00:38:10;;;;;;;1.65;0.20;;;24.20;37.30;;;;;;4820384;29;20508;-52
2022/09/22 00:40:37;;;;;;;0.40;0.20;;;24.20;37.30;;;;;;4819353;29;20089;-51
2022/09/22 00:43:19;;;;;;;0.20;0.20;;;24.20;37.20;;;;;;4820216;29;20504;-49
2022/09/22 00:45:49;;;;;;;0.85;0.77;;;24.20;37.30;;;;;;4806921;29;20739;-50
2022/09/22 00:48:20;;;;;;;0.45;0.17;;;24.20;37.40;;;;;;4819546;29;20067;-51
2022/09/22 00:50:48;;;;;;;0.38;0.30;;;24.10;38.00;;;;;;4820071;29;20053;-52
2022/09/22 00:53:19;;;;;;;3.25;0.10;;;24.10;37.40;;;;;;4819955;29;20133;-51
2022/09/22 00:55:50;;;;;;;2.03;0.30;;;24.20;37.50;;;;;;4820049;29;20048;-47
2022/09/22 00:58:21;;;;;;;0.65;0.20;;;24.10;37.40;;;;;;4820059;29;20077;-46
2022/09/22 01:00:49;;;;;;;0.20;0.20;;;24.10;37.50;;;;;;4819399;29;20057;-47
2022/09/22 01:03:19;;;;;;;0.63;0.20;;;24.10;37.50;;;;;;4819687;29;20050;-48
2022/09/22 01:05:49;;;;;;;0.38;0.20;;;24.10;37.60;;;;;;4819558;29;20133;-47
2022/09/22 01:08:20;;;;;;;0.82;0.10;;;24.10;37.60;;;;;;4819464;29;20460;-47
2022/09/22 01:10:48;;;;;;;0.40;0.10;;;24.10;37.60;;;;;;4819202;29;20091;-47
2022/09/22 01:13:24;;;;;;;4.10;0.65;;;24.10;37.70;;;;;;4819814;29;20050;-45
2022/09/22 01:16:02;;;;;;;1.13;0.22;;;24.10;37.70;;;;;;4819365;29;20054;-49
2022/09/22 01:18:41;;;;;;;0.40;0.10;;;24.00;37.70;;;;;;4818891;29;20641;-46
2022/09/22 01:21:23;;;;;;;0.25;0.20;;;24.00;37.70;;;;;;4819710;29;20111;-45
2022/09/22 01:24:20;;;;;;;3.95;1.10;;;24.10;37.90;;;;;;4819319;29;20050;-48
2022/09/22 01:27:15;;;;;;;0.57;0.20;;;24.10;37.90;;;;;;4815052;29;20129;-48
2022/09/22 01:30:25;;;;;;;1.50;0.20;;;24.00;37.90;;;;;;4819537;29;20125;-47
2022/09/22 01:33:22;;;;;;;0.30;0.30;;;24.00;37.90;;;;;;4817413;29;20069;-47
2022/09/22 01:36:02;;;;;;;1.80;0.20;;;23.90;38.00;;;;;;4814404;29;20038;-47
2022/09/22 01:38:35;;;;;;;1.02;0.22;;;23.90;38.00;;;;;;4819550;29;20042;-46
2022/09/22 01:41:07;;;;;;;1.30;0.20;;;23.90;38.10;;;;;;4819164;29;20125;-47
2022/09/22 01:43:41;;;;;;;0.20;0.20;;;23.90;38.10;;;;;;4818479;29;20127;-47
2022/09/22 01:46:14;;;;;;;4.70;0.20;;;23.90;38.10;;;;;;4818969;29;20126;-46
2022/09/22 01:48:49;;;;;;;0.52;0.10;;;23.90;38.10;;;;;;4819397;29;20576;-47
2022/09/22 01:51:21;;;;;;;1.45;0.40;;;23.90;38.10;;;;;;4813209;29;20046;-48
2022/09/22 01:53:54;;;;;;;0.82;0.30;;;23.90;38.10;;;;;;4816981;29;20058;-46
2022/09/22 01:56:23;;;;;;;0.85;0.20;;;23.90;38.10;;;;;;4822621;29;20054;-46
2022/09/22 01:58:55;;;;;;;0.20;0.10;;;23.90;38.20;;;;;;4822481;29;20074;-50
2022/09/22 02:01:25;;;;;;;0.68;0.10;;;23.90;38.20;;;;;;4822404;29;20560;-48
2022/09/22 02:03:59;;;;;;;0.13;0.13;;;23.90;38.20;;;;;;4822294;29;20062;-49
2022/09/22 02:06:31;;;;;;;1.65;0.55;;;23.90;38.30;;;;;;4822499;29;20054;-46
2022/09/22 02:09:03;;;;;;;1.15;0.20;;;23.90;38.90;;;;;;4818856;29;20047;-50
2022/09/22 02:11:30;;;;;;;0.82;0.40;;;23.90;38.40;;;;;;4819994;29;20046;-50
2022/09/22 02:13:58;;;;;;;0.95;0.20;;;23.80;38.30;;;;;;4819189;29;20058;-51
2022/09/22 02:16:26;;;;;;;1.90;0.20;;;23.80;38.30;;;;;;4818974;29;20484;-49
2022/09/22 02:19:00;;;;;;;0.90;0.10;;;23.80;38.30;;;;;;4821762;29;20057;-48
2022/09/22 02:21:28;;;;;;;1.02;0.10;;;23.80;38.40;;;;;;4820340;29;20062;-47
2022/09/22 02:23:55;;;;;;;0.82;0.10;;;23.80;38.40;;;;;;4822174;29;20155;-50
2022/09/22 02:26:25;;;;;;;3.80;0.40;;;23.80;38.40;;;;;;4822008;29;20099;-49
2022/09/22 02:28:55;;;;;;;0.40;0.10;;;23.80;38.50;;;;;;4821674;29;20046;-49
2022/09/22 02:31:24;;;;;;;0.88;0.17;;;23.80;38.50;;;;;;4822286;29;20077;-51
2022/09/22 02:33:52;;;;;;;3.47;0.22;;;23.80;38.60;;;;;;4825716;29;20041;-49
2022/09/22 02:36:43;;;;;;;0.28;0.17;;;23.70;38.60;;;;;;4822894;29;20057;-48
2022/09/22 02:39:14;;;;;;;0.20;0.20;;;23.80;38.60;;;;;;4821897;29;20424;-50
2022/09/22 02:41:56;;;;;;;1.20;0.20;;;23.70;38.60;;;;;;4821986;29;20077;-50
2022/09/22 02:44:29;;;;;;;3.08;0.20;;;23.70;38.70;;;;;;4821442;29;20205;-49
2022/09/22 02:47:02;;;;;;;3.83;0.20;;;23.70;38.80;;;;;;4821707;29;20043;-50
2022/09/22 02:49:30;;;;;;;0.82;0.20;;;23.70;38.80;;;;;;4821834;29;20042;-51
2022/09/22 02:51:59;;;;;;;0.63;0.45;;;23.70;38.90;;;;;;4821472;29;20046;-47
2022/09/22 02:54:26;;;;;;;0.25;0.10;;;23.70;38.80;;;;;;4821625;29;20047;-50
2022/09/22 02:56:54;;;;;;;0.93;0.90;;;23.70;38.80;;;;;;4820819;29;20518;-48
2022/09/22 02:59:21;;;;;;;0.50;0.20;;;23.70;38.80;;;;;;4821412;29;20054;-47
2022/09/22 03:01:48;;;;;;;1.35;0.15;;;23.60;38.80;;;;;;4821276;29;20503;-47
2022/09/22 03:04:15;;;;;;;0.95;0.10;;;23.70;38.90;;;;;;4820706;29;20427;-46
2022/09/22 03:06:42;;;;;;;1.67;0.10;;;23.60;38.90;;;;;;4821127;29;20740;-47
2022/09/22 03:09:11;;;;;;;0.75;0.20;;;23.60;39.00;;;;;;4821216;29;20057;-48
2022/09/22 03:11:38;;;;;;;0.38;0.20;;;23.60;39.00;;;;;;4820510;29;20046;-47
2022/09/22 03:14:05;;;;;;;0.38;0.13;;;23.60;39.10;;;;;;4821348;29;20085;-47
2022/09/22 03:16:32;;;;;;;0.20;0.10;;;23.60;39.10;;;;;;4821223;29;20053;-47
2022/09/22 03:18:59;;;;;;;0.60;0.20;;;23.60;39.10;;;;;;4821422;29;20148;-48
2022/09/22 03:21:26;;;;;;;0.85;0.20;;;23.60;39.10;;;;;;4815292;29;20057;-50
2022/09/22 03:23:53;;;;;;;0.25;0.10;;;23.50;39.10;;;;;;4821650;29;20061;-50
2022/09/22 03:26:21;;;;;;;0.60;0.20;;;23.50;39.20;;;;;;4820539;29;20503;-46
2022/09/22 03:28:48;;;;;;;1.20;0.95;;;23.50;39.20;;;;;;4821153;29;20073;-46
2022/09/22 03:31:15;;;;;;;0.20;0.10;;;23.50;39.80;;;;;;4821007;29;20045;-47
2022/09/22 03:33:42;;;;;;;0.20;0.10;;;23.50;39.20;;;;;;4823359;29;20066;-47
2022/09/22 03:36:09;;;;;;;0.20;0.10;;;23.50;39.30;;;;;;4822932;29;20095;-48
2022/09/22 03:38:36;;;;;;;1.02;0.25;;;23.50;39.40;;;;;;4820500;29;20133;-47
2022/09/22 03:41:03;;;;;;;1.40;0.10;;;23.50;39.50;;;;;;4820335;29;20054;-48
2022/09/22 03:43:32;;;;;;;0.32;0.17;;;23.50;39.60;;;;;;4820910;29;20046;-47
2022/09/22 03:46:00;;;;;;;2.45;0.10;;;23.50;39.70;;;;;;4819700;29;20153;-48
2022/09/22 03:48:28;;;;;;;0.82;0.15;;;23.50;40.40;;;;;;4817395;29;21038;-47
2022/09/22 03:50:56;;;;;;;0.45;0.10;;;23.50;39.80;;;;;;4815406;29;20047;-49
2022/09/22 03:53:24;;;;;;;1.45;0.30;;;23.50;39.80;;;;;;4817501;29;20076;-46
2022/09/22 03:55:51;;;;;;;1.05;0.30;;;23.50;39.90;;;;;;4820242;29;20130;-49
2022/09/22 03:58:20;;;;;;;0.15;0.10;;;23.40;39.90;;;;;;4820792;29;20050;-49
2022/09/22 04:00:49;;;;;;;0.50;0.20;;;23.40;39.90;;;;;;4820156;29;20046;-47
2022/09/22 04:03:17;;;;;;;0.20;0.10;;;23.40;39.90;;;;;;4820053;29;20122;-48
2022/09/22 04:05:49;;;;;;;0.30;0.10;;;23.40;40.00;;;;;;4820007;29;20470;-47
2022/09/22 04:08:16;;;;;;;0.38;0.10;;;23.40;40.00;;;;;;4820448;29;20046;-51
2022/09/22 04:10:44;;;;;;;1.85;0.20;;;23.40;39.90;;;;;;4819561;29;20046;-48
2022/09/22 04:13:12;;;;;;;1.95;0.20;;;23.40;40.00;;;;;;4820546;29;20058;-49
2022/09/22 04:15:39;;;;;;;0.40;0.20;;;23.40;40.00;;;;;;4818451;29;20058;-47
2022/09/22 04:18:07;;;;;;;2.35;0.45;;;23.40;40.00;;;;;;4817595;29;20416;-47
2022/09/22 04:20:36;;;;;;;0.40;0.10;;;23.40;40.00;;;;;;4819726;29;20049;-47
2022/09/22 04:23:02;;;;;;;1.95;0.20;;;23.30;39.90;;;;;;4820234;29;20051;-48
2022/09/22 04:25:31;;;;;;;1.23;0.10;;;23.40;40.00;;;;;;4819336;29;20065;-47
2022/09/22 04:27:58;;;;;;;0.55;0.10;;;23.30;39.90;;;;;;4820118;29;20054;-46
2022/09/22 04:30:25;;;;;;;1.45;0.50;;;23.30;39.90;;;;;;4820211;29;20068;-47
2022/09/22 04:32:52;;;;;;;0.30;0.28;;;23.30;39.80;;;;;;4817339;29;20111;-51
2022/09/22 04:35:21;;;;;;;0.13;0.10;;;23.30;39.90;;;;;;4819840;29;20602;-46
2022/09/22 04:37:48;;;;;;;0.95;0.20;;;23.30;39.80;;;;;;4819748;29;20129;-49
2022/09/22 04:40:15;;;;;;;1.40;0.20;;;23.30;39.80;;;;;;4816350;29;20056;-47
2022/09/22 04:42:45;;;;;;;0.40;0.30;;;23.30;39.80;;;;;;4816562;29;20038;-47
2022/09/22 04:45:13;;;;;;;1.27;0.30;;;23.30;39.80;;;;;;4817032;29;20051;-47
2022/09/22 04:47:41;;;;;;;0.75;0.22;;;23.30;39.90;;;;;;4814343;29;20637;-48
2022/09/22 04:50:08;;;;;;;0.10;0.10;;;23.30;40.00;;;;;;4814918;29;20081;-47
2022/09/22 04:52:37;;;;;;;0.70;0.30;;;23.30;40.20;;;;;;4816818;29;20044;-47
2022/09/22 04:55:04;;;;;;;0.95;0.20;;;23.30;40.20;;;;;;4813469;29;20086;-47
2022/09/22 04:57:32;;;;;;;2.42;0.25;;;23.20;40.10;;;;;;4814780;29;20042;-48
2022/09/22 04:59:59;;;;;;;0.20;0.10;;;23.30;40.10;;;;;;4812776;29;20511;-48
2022/09/22 05:02:26;;;;;;;0.73;0.13;;;23.20;40.00;;;;;;4815495;29;20047;-48
2022/09/22 05:04:53;;;;;;;2.05;0.10;;;23.20;40.00;;;;;;4817179;29;20062;-48
2022/09/22 05:07:20;;;;;;;0.57;0.10;;;23.20;40.00;;;;;;4817196;29;20042;-47
2022/09/22 05:09:48;;;;;;;1.52;0.22;;;23.20;40.10;;;;;;4817577;29;20142;-51
2022/09/22 05:12:15;;;;;;;0.57;0.20;;;23.20;40.10;;;;;;4817388;29;20077;-53
2022/09/22 05:14:42;;;;;;;0.88;0.65;;;23.20;40.10;;;;;;4818166;29;20714;-50
2022/09/22 05:17:09;;;;;;;0.15;0.10;;;23.20;40.10;;;;;;4816824;29;20042;-50
2022/09/22 05:19:36;;;;;;;0.98;0.98;;;23.20;40.10;;;;;;4817459;29;20061;-49
2022/09/22 05:22:03;;;;;;;1.00;0.10;;;23.20;40.10;;;;;;4816781;29;20411;-49
2022/09/22 05:24:31;;;;;;;0.10;0.10;;;23.20;40.20;;;;;;4817137;29;20121;-46
2022/09/22 05:26:59;;;;;;;0.50;0.20;;;23.20;40.20;;;;;;4817119;29;20135;-47
2022/09/22 05:29:26;;;;;;;1.65;0.10;;;23.20;40.20;;;;;;4821256;29;20046;-48
2022/09/22 05:31:53;;;;;;;0.77;0.20;;;23.20;40.30;;;;;;4820758;29;20069;-46
2022/09/22 05:34:20;;;;;;;2.40;0.38;;;23.20;40.30;;;;;;4818786;29;20057;-45
2022/09/22 05:36:47;;;;;;;6.47;0.30;;;23.20;40.50;;;;;;4818365;29;20049;-46
2022/09/22 05:39:14;;;;;;;11.55;0.38;;;23.20;40.20;;;;;;4824992;29;20070;-44
2022/09/22 05:41:41;;;;;;;13.63;0.88;;;23.20;40.00;;;;;;4821569;29;20064;-48
2022/09/22 05:44:10;;;;;;;7.35;0.60;;;23.20;39.80;;;;;;4821553;29;20134;-52
2022/09/22 05:46:37;;;;;;;0.75;0.30;;;23.20;39.10;;;;;;4819190;29;20049;-47
2022/09/22 05:49:04;;;;;;;0.70;0.38;;;23.00;38.70;;;;;;4821834;29;20115;-49
2022/09/22 05:51:31;;;;;;;1.67;0.55;;;22.80;38.90;;;;;;4821861;29;20050;-49
2022/09/22 05:53:58;;;;;;;10.77;0.25;;;22.60;39.20;;;;;;4822069;29;20148;-50
2022/09/22 05:56:25;;;;;;;3.13;0.93;;;22.30;39.30;;;;;;4822276;29;20050;-51
2022/09/22 05:58:52;;;;;;;9.32;0.20;;;22.10;39.60;;;;;;4822098;29;20079;-59
2022/09/22 06:01:20;;;;;;;2.15;0.35;;;22.00;39.90;;;;;;4822130;29;20045;-50
2022/09/22 06:03:48;;;;;;;1.35;0.60;;;21.80;40.10;;;;;;4821942;29;20078;-53
2022/09/22 06:06:15;;;;;;;3.13;1.00;;;21.70;40.30;;;;;;4815697;29;20050;-53
2022/09/22 06:08:42;;;;;;;2.60;0.32;;;21.60;40.30;;;;;;4819410;29;20073;-50
2022/09/22 06:11:09;;;;;;;5.10;0.45;;;21.50;40.60;;;;;;4822048;29;20050;-50
2022/09/22 06:13:37;;;;;;;6.18;0.80;;;21.40;40.70;;;;;;4822082;29;20042;-52
2022/09/22 06:16:05;;;;;;;2.35;0.80;;;21.30;40.80;;;;;;4821945;29;20051;-50
2022/09/22 06:18:33;;;;;;;1.40;0.52;;;21.30;41.00;;;;;;4821573;29;20058;-50
2022/09/22 06:21:00;;;;;;;9.00;0.70;;;21.20;41.00;;;;;;4821062;29;20043;-51
2022/09/22 06:23:27;;;;;;;4.63;0.38;;;21.20;41.20;;;;;;4821181;29;20134;-51
2022/09/22 06:25:58;;;;;;;4.57;0.43;;;21.20;41.80;;;;;;4815354;29;20046;-54
2022/09/22 06:28:25;;;;;;;3.60;1.13;;;21.20;41.30;;;;;;4821944;29;20046;-56
2022/09/22 06:30:52;;;;;;;2.63;0.73;;;21.20;41.40;;;;;;4820600;29;20042;-52
2022/09/22 06:33:22;;;;;;;3.03;0.60;;;21.20;41.30;;;;;;4821664;29;20103;-57
2022/09/22 06:35:51;;;;;;;8.43;1.00;;;21.30;41.30;;;;;;4821323;29;20102;-50
2022/09/22 06:38:18;;;;;;;6.20;1.05;;;21.30;41.10;;;;;;4820927;29;20055;-54
2022/09/22 06:40:45;;;;;;;6.32;0.50;;;21.30;40.90;;;;;;4820883;29;20121;-50
2022/09/22 06:43:21;;;;;;;3.10;0.45;;;21.30;40.80;;;;;;4821884;29;20171;-53
2022/09/22 06:45:50;;;;;;;10.02;1.10;;;21.20;40.70;;;;;;4816764;29;20517;-46
2022/09/22 06:48:19;;;;;;;3.28;0.65;;;21.20;40.60;;;;;;4821467;29;20054;-48
2022/09/22 06:50:50;;;;;;;3.78;1.10;;;21.10;40.50;;;;;;4821005;29;20519;-47
2022/09/22 06:53:19;;;;;;;4.18;0.70;;;21.00;40.60;;;;;;4820302;29;20888;-48
2022/09/22 06:55:46;;;;;;;6.50;0.57;;;20.90;40.60;;;;;;4821362;29;20054;-49
2022/09/22 06:58:15;;;;;;;4.07;1.52;;;20.80;40.70;;;;;;4820096;29;20042;-45
2022/09/22 07:00:42;;;;;;;4.55;0.85;;;20.70;41.40;;;;;;4821031;29;20046;-49
2022/09/22 07:03:16;;;;;;;2.60;0.90;;;20.60;41.00;;;;;;4820862;29;20042;-50
2022/09/22 07:05:53;;;;;;;7.80;0.90;;;20.50;41.20;;;;;;4820704;29;20085;-50
2022/09/22 07:08:22;;;;;;;4.90;1.30;;;20.40;41.40;;;;;;4820996;29;20202;-48
2022/09/22 07:10:53;;;;;;;5.57;1.00;;;20.30;41.60;;;;;;4820467;29;20130;-55
2022/09/22 07:13:21;;;;;;;5.78;1.13;;;20.20;41.80;;;;;;4820364;29;20503;-51
2022/09/22 07:15:48;;;;;;;3.85;0.82;;;20.00;42.00;;;;;;4820563;29;20519;-50
2022/09/22 07:18:15;;;;;;;4.10;1.10;;;20.00;42.20;;;;;;4820442;29;20129;-51
2022/09/22 07:20:44;;;;;;;6.00;0.80;;;20.00;42.90;;;;;;4820121;29;20043;-48
2022/09/22 07:23:16;;;;;;;5.15;0.60;;;20.10;43.40;;;;;;4820812;29;20400;-51
2022/09/22 07:25:55;;;;;;;8.25;0.90;;;20.40;43.60;;;;;;4814625;29;20054;-54
2022/09/22 07:28:24;;;;;;;3.50;0.60;;;20.60;43.60;;;;;;4813698;29;20034;-55
2022/09/22 07:30:51;;;;;;;3.63;0.40;;;20.80;43.40;;;;;;4820214;29;20074;-48
2022/09/22 07:33:20;;;;;;;4.93;0.65;;;21.00;43.30;;;;;;4819098;29;20046;-49
2022/09/22 07:35:47;;;;;;;3.03;0.47;;;21.20;43.40;;;;;;4819330;29;20045;-50
2022/09/22 07:38:15;;;;;;;4.90;0.50;;;21.40;43.00;;;;;;4820170;29;20546;-49
2022/09/22 07:40:53;;;;;;;1.45;0.63;;;21.50;42.90;;;;;;4820030;29;20077;-57
2022/09/22 07:43:20;;;;;;;2.78;0.55;;;21.70;42.70;;;;;;4813643;29;20049;-52
2022/09/22 07:45:54;;;;;;;1.27;0.65;;;21.90;42.60;;;;;;4819009;29;20571;-54
2022/09/22 07:48:36;;;;;;;3.55;0.32;;;22.00;42.40;;;;;;4818568;29;20081;-55
2022/09/22 07:51:05;;;;;;;4.18;1.02;;;22.10;42.20;;;;;;4813626;29;20141;-54
2022/09/22 07:53:32;;;;;;;2.45;0.47;;;22.30;42.10;;;;;;4820230;29;20124;-50
2022/09/22 07:56:05;;;;;;;3.63;0.35;;;22.40;41.80;;;;;;4819491;29;20132;-56
2022/09/22 07:58:33;;;;;;;1.35;0.65;;;22.60;41.70;;;;;;4816557;29;20073;-52
2022/09/22 08:01:06;;;;;;;4.50;0.70;;;22.70;41.40;;;;;;4810499;29;20134;-57
2022/09/22 08:03:33;;;;;;;3.60;1.00;;;22.90;41.30;;;;;;4816865;29;20054;-57
2022/09/22 08:06:04;;;;;;;1.65;0.35;;;23.00;41.10;;;;;;4821643;29;20086;-67
2022/09/22 08:08:33;;;;;;;2.85;0.73;;;23.10;40.70;;;;;;4816661;29;20057;-56
2022/09/22 08:11:06;;;;;;;4.35;0.88;;;23.20;40.50;;;;;;4819251;29;20299;-55
2022/09/22 08:13:35;;;;;;;2.15;0.57;;;23.30;40.40;;;;;;4819626;29;20046;-57
2022/09/22 08:16:04;;;;;;;3.92;0.80;;;23.40;40.20;;;;;;4817722;29;20423;-55
2022/09/22 08:18:32;;;;;;;4.70;0.60;;;23.50;40.10;;;;;;4819457;29;20469;-56
2022/09/22 08:21:00;;;;;;;3.58;0.55;;;23.60;40.00;;;;;;4819812;29;20049;-55
2022/09/22 08:23:29;;;;;;;7.25;0.75;;;23.70;39.90;;;;;;4819511;29;20042;-51
2022/09/22 08:25:57;;;;;;;2.88;0.57;;;23.70;39.70;;;;;;4817919;29;20104;-54
2022/09/22 08:28:26;;;;;;;6.93;0.40;;;23.80;39.60;;;;;;4818448;29;20050;-55
2022/09/22 08:30:53;;;;;;;6.22;1.10;;;23.90;39.50;;;;;;4818887;29;20046;-55
2022/09/22 08:33:20;;;;;;;5.57;0.93;;;24.00;39.40;;;;;;4819312;29;20228;-57
2022/09/22 08:35:52;;;;;;;2.13;0.57;;;24.10;39.30;;;;;;4818698;29;20080;-58
2022/09/22 08:38:22;;;;;;;3.75;0.50;;;24.20;39.30;;;;;;4819453;29;20081;-47
2022/09/22 08:41:06;;;;;;;4.13;1.20;;;24.20;39.10;;;;;;4818931;29;20523;-51
2022/09/22 08:43:35;;;;;;;1.00;0.38;;;24.40;39.00;;;;;;4813716;29;20042;-52
2022/09/22 08:46:04;;;;;;;3.90;0.65;;;24.40;38.90;;;;;;4819370;29;20050;-50
2022/09/22 08:54:09;;;;;;;5.13;1.20;;;24.60;38.50;;;;;;4819374;29;20435;-60
2022/09/22 08:56:42;;;;;;;5.70;0.50;;;24.70;38.40;;;;;;4819572;29;20053;-61
2022/09/22 08:59:17;;;;;;;4.07;0.80;;;24.80;38.30;;;;;;4819470;29;20500;-62
2022/09/22 09:02:02;;;;;;;2.50;0.25;;;24.90;38.20;;;;;;4815569;29;20081;-52
2022/09/22 09:05:06;;;;;;;3.60;0.93;;;24.90;38.00;;;;;;4819236;29;20099;-57
2022/09/22 09:07:42;;;;;;;1.95;1.02;;;25.00;37.90;;;;;;4811677;29;20606;-56
2022/09/22 09:10:29;;;;;;;2.42;0.52;;;25.00;37.80;;;;;;4819009;29;20043;-57
2022/09/22 09:13:14;;;;;;;3.70;0.40;;;25.20;37.70;;;;;;4818434;29;20060;-51
2022/09/22 09:15:56;;;;;;;8.52;0.63;;;25.20;37.60;;;;;;4814659;29;20053;-51
2022/09/22 09:18:28;;;;;;;3.70;0.28;;;25.30;37.50;;;;;;4818306;29;20074;-50
2022/09/22 09:20:58;;;;;;;4.97;1.17;;;25.30;37.40;;;;;;4818838;29;20074;-50
2022/09/22 09:23:32;;;;;;;1.42;0.50;;;25.30;37.20;;;;;;4818794;29;20049;-51
2022/09/22 09:26:01;;;;;;;4.22;0.52;;;25.40;37.10;;;;;;4819034;29;20050;-50
2022/09/22 09:28:34;;;;;;;2.50;0.60;;;25.50;37.10;;;;;;4814505;29;20043;-54
2022/09/22 09:31:11;;;;;;;1.67;0.30;;;25.60;37.00;;;;;;4818552;29;20051;-47
2022/09/22 09:33:48;;;;;;;0.85;0.40;;;25.70;36.90;;;;;;4814038;29;20428;-50
2022/09/22 09:36:19;;;;;;;2.00;0.50;;;25.70;36.80;;;;;;4815753;29;20520;-52
2022/09/22 09:38:52;;;;;;;1.10;0.38;;;25.80;36.70;;;;;;4818624;29;20046;-48
2022/09/22 09:41:23;;;;;;;2.00;0.50;;;25.90;36.60;;;;;;4818377;29;20046;-49
2022/09/22 09:43:53;;;;;;;2.17;0.68;;;25.90;37.00;;;;;;4816345;29;20598;-47
2022/09/22 09:46:36;;;;;;;0.45;0.40;;;26.00;36.30;;;;;;4814294;29;20050;-50
2022/09/22 09:49:13;;;;;;;1.73;0.70;;;26.10;36.20;;;;;;4818844;29;20416;-55
2022/09/22 09:51:44;;;;;;;3.38;0.30;;;26.10;36.10;;;;;;4813358;29;20042;-54
2022/09/22 09:54:14;;;;;;;3.33;0.50;;;26.20;36.00;;;;;;4818273;29;20057;-55
2022/09/22 09:57:07;;;;;;;4.80;0.30;;;26.30;35.80;;;;;;4818948;29;20516;-49
2022/09/22 10:02:26;;;;;;;0.30;0.20;;;26.30;35.50;;;;;;4818482;29;20141;-48
2022/09/22 10:04:55;;;;;;;3.40;0.30;;;26.40;35.40;;;;;;4818688;29;20050;-49
2022/09/22 10:07:25;;;;;;;0.73;0.45;;;26.40;35.30;;;;;;4818821;29;20068;-52
2022/09/22 10:09:54;;;;;;;0.73;0.35;;;26.50;35.30;;;;;;4818869;29;20046;-54
2022/09/22 10:12:30;;;;;;;1.35;0.22;;;26.50;35.10;;;;;;4818640;29;20512;-51
2022/09/22 10:14:58;;;;;;;5.57;0.32;;;26.60;35.60;;;;;;4821580;29;20060;-52
2022/09/22 10:17:32;;;;;;;0.73;0.40;;;26.60;34.80;;;;;;4821647;29;20050;-54
2022/09/22 10:20:16;;;;;;;2.55;0.20;;;26.70;34.70;;;;;;4815270;29;20775;-53
2022/09/22 10:22:44;;;;;;;1.63;0.20;;;26.80;34.60;;;;;;4815840;29;20053;-50
2022/09/22 10:25:21;;;;;;;0.35;0.35;;;26.80;34.60;;;;;;4821822;29;20095;-56
2022/09/22 10:28:00;;;;;;;0.95;0.30;;;26.90;34.40;;;;;;4815466;29;20884;-54
2022/09/22 10:30:29;;;;;;;0.47;0.20;;;26.90;34.20;;;;;;4821970;29;20465;-54
2022/09/22 10:33:17;;;;;;;0.20;0.10;;;26.90;34.10;;;;;;4819961;29;20082;-54
2022/09/22 10:35:46;;;;;;;0.28;0.20;;;27.00;34.50;;;;;;4821155;29;20106;-50
2022/09/22 10:38:18;;;;;;;15.38;1.77;;;27.00;33.80;;;;;;4818256;29;21623;-50
2022/09/22 10:40:48;;;;;;;1.27;0.15;;;27.00;33.80;;;;;;4818662;29;20095;-46
2022/09/22 10:43:42;;;;;;;3.63;1.40;;;27.10;33.70;;;;;;4819516;29;20103;-48
2022/09/22 10:46:27;;;;;;;8.75;0.20;;;27.10;33.70;;;;;;4809542;29;20802;-47
2022/09/22 10:49:06;;;;;;;0.95;0.65;;;27.20;33.80;;;;;;4817216;29;20125;-47
2022/09/22 10:51:47;;;;;;;2.33;0.20;;;27.20;33.80;;;;;;4816606;29;20151;-47
2022/09/22 10:54:40;;;;;;;1.05;0.10;;;27.20;34.40;;;;;;4815381;29;20059;-47
2022/09/22 10:57:22;;;;;;;9.35;0.20;;;27.10;33.80;;;;;;4818504;29;20042;-47
2022/09/22 11:00:04;;;;;;;1.35;0.32;;;27.10;33.70;;;;;;4817037;29;20050;-47
2022/09/22 11:03:07;;;;;;;1.48;0.40;;;27.10;33.80;;;;;;4816770;29;20786;-47
2022/09/22 11:14:29;;;;;;;1.40;0.17;;;27.00;33.80;;;;;;4816663;29;20085;-48
2022/09/22 11:17:09;;;;;;;1.23;0.10;;;27.00;33.90;;;;;;4821531;29;21557;-47
2022/09/22 11:20:00;;;;;;;1.90;0.13;;;27.00;33.90;;;;;;4818518;29;20047;-49
2022/09/22 11:22:50;;;;;;;0.25;0.10;;;26.90;33.90;;;;;;4818900;29;20051;-46
2022/09/22 11:25:40;;;;;;;1.20;0.10;;;26.90;33.90;;;;;;4821175;29;20469;-46
2022/09/22 11:28:22;;;;;;;0.82;0.10;;;26.90;33.90;;;;;;4817531;29;20053;-47
2022/09/22 11:30:51;;;;;;;2.75;0.10;;;26.90;33.90;;;;;;4817872;29;20043;-48
2022/09/22 11:33:35;;;;;;;0.80;0.10;;;26.80;33.90;;;;;;4821305;29;20046;-48
2022/09/22 11:36:20;;;;;;;5.07;0.30;;;26.80;34.00;;;;;;4815130;29;20497;-47
2022/09/22 11:39:09;;;;;;;3.38;1.05;;;26.80;34.20;;;;;;4820776;29;20047;-47
2022/09/22 11:41:40;;;;;;;6.60;0.10;;;26.90;34.20;;;;;;4821551;29;20045;-48
2022/09/22 11:44:36;;;;;;;2.03;0.10;;;26.80;34.20;;;;;;4818997;29;20050;-49
2022/09/22 11:47:31;;;;;;;4.63;0.15;;;26.80;34.00;;;;;;4816736;29;20415;-47
2022/09/22 11:50:24;;;;;;;0.13;0.10;;;26.80;34.00;;;;;;4820531;29;20177;-47
2022/09/22 11:53:19;;;;;;;1.58;0.10;;;26.80;34.00;;;;;;4820486;29;20097;-49
2022/09/22 11:55:57;;;;;;;0.30;0.15;;;26.80;33.90;;;;;;4814397;29;20054;-54
2022/09/22 11:58:28;;;;;;;1.75;0.10;;;26.80;33.90;;;;;;4815697;29;20087;-48
2022/09/22 12:01:02;;;;;;;2.75;0.10;;;26.70;33.90;;;;;;4814751;29;20051;-49
2022/09/22 12:03:36;;;;;;;2.95;0.10;;;26.80;34.70;;;;;;4820337;29;20046;-50
2022/09/22 12:06:05;;;;;;;2.17;0.10;;;26.80;34.10;;;;;;4820137;29;20047;-49
2022/09/22 12:08:37;;;;;;;1.05;0.10;;;26.80;34.20;;;;;;4819646;29;20042;-44
2022/09/22 12:11:07;;;;;;;0.30;0.20;;;26.80;34.20;;;;;;4818977;29;20038;-48
2022/09/22 12:13:41;;;;;;;2.28;0.10;;;26.90;34.30;;;;;;4818078;29;20606;-51
2022/09/22 12:16:12;;;;;;;0.60;0.00;;;26.90;34.60;;;;;;4817050;29;20046;-51
2022/09/22 12:18:45;;;;;;;1.90;0.10;;;26.90;34.50;;;;;;4817527;29;20046;-49
2022/09/22 12:21:26;;;;;;;0.77;0.20;;;27.00;34.30;;;;;;4815036;29;20121;-49
2022/09/22 12:23:56;;;;;;;0.63;0.20;;;27.00;33.90;;;;;;4814321;29;20055;-49
2022/09/22 12:26:29;;;;;;;2.40;0.10;;;27.10;33.70;;;;;;4814582;29;20055;-50
2022/09/22 12:28:57;;;;;;;0.85;0.10;;;27.20;33.10;;;;;;4814256;29;20046;-48
2022/09/22 12:31:34;;;;;;;1.10;0.20;;;27.20;32.90;;;;;;4818754;29;20042;-46
2022/09/22 12:34:03;;;;;;;3.03;0.10;;;27.30;32.70;;;;;;4822236;29;20050;-46
2022/09/22 12:36:33;;;;;;;2.28;1.20;;;27.30;31.50;;;;;;4819063;29;20121;-48
2022/09/22 12:39:09;;;;;;;0.65;0.10;;;27.40;31.90;;;;;;4817710;29;20047;-48
2022/09/22 12:41:47;;;;;;;;;;;27.40;32.00;;;;;;4820405;29;20108;-47
2022/09/22 12:44:18;;;;;;;0.60;0.10;;;27.30;32.00;;;;;;4819685;29;20301;-46
2022/09/22 12:46:46;;;;;;;1.92;0.08;;;27.40;32.00;;;;;;4820304;29;20427;-47
2022/09/22 12:49:18;;;;;;;0.68;0.08;;;27.30;31.70;;;;;;4817364;29;20049;-47
2022/09/22 12:51:45;;;;;;;3.22;0.40;;;27.40;31.50;;;;;;4817026;29;20047;-48
2022/09/22 12:54:37;;;;;;;0.90;0.10;;;27.40;31.50;;;;;;4812978;29;20057;-48
2022/09/22 12:57:36;;;;;;;1.45;0.10;;;27.50;31.40;;;;;;4816299;29;20065;-47
2022/09/22 13:00:21;;;;;;;2.47;0.10;;;27.50;31.00;;;;;;4809663;29;20062;-47
2022/09/22 13:02:49;;;;;;;0.20;0.00;;;27.50;30.90;;;;;;4819781;29;20046;-47
2022/09/22 13:05:41;;;;;;;0.10;0.00;;;27.50;30.60;;;;;;4819614;29;20107;-49
2022/09/22 13:08:26;;;;;;;1.42;0.10;;;27.50;30.50;;;;;;4819646;29;20085;-51
2022/09/22 13:10:58;;;;;;;3.30;0.10;;;27.50;30.20;;;;;;4819800;29;20111;-51
2022/09/22 13:13:37;;;;;;;1.15;0.57;;;27.50;29.60;;;;;;4819934;29;20054;-49
2022/09/22 13:16:35;;;;;;;3.40;0.10;;;27.60;29.50;;;;;;4820108;29;20456;-46
2022/09/22 13:19:07;;;;;;;1.02;0.10;;;27.50;29.40;;;;;;4815096;29;20079;-46
2022/09/22 13:21:35;;;;;;;0.82;0.10;;;27.50;29.70;;;;;;4814386;29;20045;-46
2022/09/22 13:24:05;;;;;;;0.15;0.10;;;27.50;29.20;;;;;;4819921;29;20047;-46
2022/09/22 13:26:34;;;;;;;0.13;0.10;;;27.50;29.50;;;;;;4815785;29;20500;-55
2022/09/22 13:29:03;;;;;;;3.40;0.13;;;27.60;29.70;;;;;;4815679;29;20073;-49
2022/09/22 13:31:38;;;;;;;1.85;0.05;;;27.60;29.90;;;;;;4813915;29;20115;-53